Jefferson, Wisconsin
Current Conditions -  °F | °C
As of 4:10 AM on Thursday 29 Jan 2015 (Local Time) from KRYV Reporting Station
Overcast Overcast  
Wind Chill: -1°   Ceiling: 1700
Heat Index: -1°   Visibility: 10mi
Dew Point: -4°   Wind: 3mph
Humidity: 80%   Direction: 360°N
Pressure: 29.72"   Gusts: NA
Location:  43°N, 88.81°W
Report Text: KRYV 291010Z AUTO 36003KT 10SM OVC017 M01/M04 A2972 RMK AO2 T10061036
Loading
Personal Weather Stations






























Interactive Weather Map New forecast layout! Learn more

10-Day Weather Forecast

Advertisements
Track Severe Weather on mobile